SVPL1: Red River at Shreveport Site 2

                                SHEF ID:       SVPL1     Red River at Shreveport Site 2
STATION TYPE:

PRECIP STAGE RIV-FLOW VOLTAGE
in ft cfs volt
Ccp-Rev Ccp-Rev Ccp-Rev Ccp-Rev
(America/Chicago)
08/10 00:00 0.00 13.69 1636 12.83
08/10 01:00 0.00 13.70 1680 12.83
08/10 02:00 0.00 13.70 1680 12.82
08/10 03:00 0.00 13.71 1724 12.80
08/10 04:00 0.00 13.70 1680 12.77
08/10 05:00 0.00 13.69 1636 12.77
08/10 06:00 0.00 13.69 1636 12.77
08/10 07:00 0.00 13.66 1504 12.93
08/10 08:00 0.00 13.55 1020 13.30
08/10 09:00 0.00 13.61 1284 13.07
08/10 10:00 0.00 13.67 1548 13.07
08/10 11:00 0.00 13.64 1416 13.07
08/10 12:00 0.00 13.61 1284 13.08
08/10 13:00 0.00 13.58 1152 13.08
08/10 14:00 0.00 13.60 1240 13.06
08/10 15:00 0.00 13.62 1328 13.07
08/10 16:00 0.00 13.61 1284 13.06
08/10 17:00 0.00 13.59 1196 13.06
08/10 18:00 0.00 13.57 1108 13.05
08/10 19:00 0.00 13.60 1240 12.93
08/10 20:00 0.00 13.66 1504 12.90
08/10 21:00 0.00 13.66 1504 12.88
08/10 22:00 0.00 13.65 1460 12.86
08/10 23:00 0.00 13.66 1504 12.88
Data processed at Tue 11Aug2026 04:24 GMT

NOTICE: If you are parsing this page

Please convert to using our Data API. Starting early 2026 we will be migrating to: https://water.usace.army.mil with modern pages rendered in JavaScript. When this migration completes you will no longer be able to scrape this page! CWMSDataAPI (CDA)

Timeseries IDs (TSIDs)

TSIDs used from left to right in the data table
SHRE.Precip-Inc.Total.1Hour.1Hour.Ccp-Rev
SHRE.Stage.Inst.1Hour.0.Ccp-Rev
SHRE.Flow.Inst.1Hour.0.Ccp-Rev
SHRE.Volt-Battery.Inst.1Hour.0.Ccp-Rev

                            

All information presented herein is the property of the government of the United States of America and may be revised or deleted at any time without prior notice. Dissemination of this information without the expressed written consent of the Public Affairs Office, Tulsa District U.S. Army Corps of Engineers is strictly prohibited. These data are gathered electronically and, as presented, have NOT undergone any form of quality control. These data are NOT guaranteed to be valid or correct.